Time;durP1;ratioP1;P1;durP2;ratioP2;P2;SDS_P1;SDS_P2;PMS_P1;PMS_P2;Temp;Humidity;BMP_temperature;BMP_pressure;BME280_temperature;BME280_humidity;BME280_pressure;Samples;Min_cycle;Max_cycle;Signal;HPM_P1;HPM_P2
2022/11/22 00:01:14;;;;;;;1.30;1.20;;;19.90;42.30;;;;;;4989095;28;20375;-63
2022/11/22 00:03:39;;;;;;;1.13;1.03;;;20.00;42.30;;;;;;4993833;28;20549;-64
2022/11/22 00:06:05;;;;;;;1.50;1.20;;;19.90;42.30;;;;;;4995774;28;20211;-62
2022/11/22 00:08:32;;;;;;;1.27;1.17;;;20.00;42.40;;;;;;4989862;28;20227;-63
2022/11/22 00:10:57;;;;;;;1.33;1.23;;;20.00;42.40;;;;;;4972042;28;20782;-63
2022/11/22 00:13:23;;;;;;;1.73;1.20;;;19.90;42.30;;;;;;4988262;28;20556;-63
2022/11/22 00:16:02;;;;;;;1.40;1.30;;;19.90;42.30;;;;;;4993843;28;20277;-63
2022/11/22 00:18:28;;;;;;;1.40;1.30;;;19.90;42.40;;;;;;4991355;28;20219;-63
2022/11/22 00:20:55;;;;;;;1.20;1.10;;;19.90;42.40;;;;;;4995185;28;20915;-62
2022/11/22 00:23:21;;;;;;;1.53;1.43;;;19.90;42.40;;;;;;4977487;28;20539;-62
2022/11/22 00:25:46;;;;;;;1.57;1.47;;;19.90;42.50;;;;;;4977085;28;22087;-62
2022/11/22 00:28:12;;;;;;;1.20;1.10;;;19.90;42.50;;;;;;4972345;28;21241;-64
2022/11/22 00:30:38;;;;;;;1.63;1.53;;;19.90;42.40;;;;;;4973662;28;20310;-63
2022/11/22 00:33:03;;;;;;;1.20;1.10;;;19.90;42.40;;;;;;4973800;28;20235;-63
2022/11/22 00:35:29;;;;;;;1.30;1.20;;;19.90;42.40;;;;;;4972737;28;20219;-63
2022/11/22 00:37:55;;;;;;;1.20;1.10;;;19.90;42.50;;;;;;4983956;28;20235;-63
2022/11/22 00:40:20;;;;;;;1.30;1.20;;;19.90;42.50;;;;;;4980771;28;20234;-64
2022/11/22 00:42:46;;;;;;;1.30;1.20;;;19.90;42.50;;;;;;4977754;28;20450;-64
2022/11/22 00:45:11;;;;;;;1.40;1.30;;;19.90;42.50;;;;;;4979772;28;20229;-62
2022/11/22 00:47:37;;;;;;;1.40;1.30;;;19.90;42.50;;;;;;4979061;28;20219;-62
2022/11/22 00:50:04;;;;;;;1.20;1.10;;;19.90;42.50;;;;;;4976621;28;20238;-63
2022/11/22 00:52:29;;;;;;;1.10;1.00;;;19.90;42.50;;;;;;4978964;28;20223;-64
2022/11/22 00:54:55;;;;;;;1.40;1.30;;;19.90;42.50;;;;;;4993388;28;20478;-63
2022/11/22 00:57:20;;;;;;;1.40;1.30;;;19.90;43.00;;;;;;4982809;28;20635;-63
2022/11/22 00:59:46;;;;;;;1.23;1.13;;;19.90;42.60;;;;;;4981951;28;20286;-63
2022/11/22 01:02:11;;;;;;;1.30;1.20;;;19.90;42.60;;;;;;4978087;28;20215;-63
2022/11/22 01:04:37;;;;;;;1.30;1.20;;;19.90;42.60;;;;;;4988090;28;20231;-64
2022/11/22 01:07:02;;;;;;;1.30;1.20;;;19.90;42.60;;;;;;4990158;28;21227;-63
2022/11/22 01:09:28;;;;;;;1.33;1.23;;;19.90;42.60;;;;;;4986539;28;20223;-63
2022/11/22 01:11:53;;;;;;;1.47;1.37;;;19.90;42.60;;;;;;4974106;28;20220;-63
2022/11/22 01:14:19;;;;;;;2.20;1.30;;;19.90;42.70;;;;;;4982213;28;20216;-63
2022/11/22 01:16:45;;;;;;;1.20;1.10;;;19.90;42.60;;;;;;4979554;28;20669;-62
2022/11/22 01:19:11;;;;;;;1.57;1.10;;;19.90;42.70;;;;;;4981422;28;20223;-63
2022/11/22 01:21:36;;;;;;;1.23;1.13;;;19.90;42.70;;;;;;4987704;28;21648;-63
2022/11/22 01:24:02;;;;;;;1.53;1.40;;;19.90;42.70;;;;;;4993320;28;20236;-63
2022/11/22 01:26:28;;;;;;;1.10;1.00;;;19.90;42.70;;;;;;4986887;28;20246;-63
2022/11/22 01:28:53;;;;;;;1.20;1.10;;;19.90;42.70;;;;;;4984567;28;20235;-63
2022/11/22 01:31:19;;;;;;;1.20;1.10;;;19.90;42.70;;;;;;4999100;28;20220;-63
2022/11/22 01:33:44;;;;;;;1.23;1.10;;;19.90;42.70;;;;;;5002148;28;20216;-63
2022/11/22 01:36:10;;;;;;;1.30;1.20;;;19.90;42.70;;;;;;5002026;28;20726;-63
2022/11/22 01:38:35;;;;;;;1.10;1.00;;;19.90;42.70;;;;;;4992964;28;20270;-63
2022/11/22 01:41:01;;;;;;;1.20;1.10;;;19.90;42.80;;;;;;4990007;28;20215;-63
2022/11/22 01:43:27;;;;;;;1.10;1.00;;;19.90;42.70;;;;;;4977428;28;20225;-62
2022/11/22 01:46:01;;;;;;;1.40;1.30;;;19.90;42.80;;;;;;4979042;28;20287;-63
2022/11/22 01:48:36;;;;;;;1.00;0.90;;;19.90;42.70;;;;;;4984686;28;20488;-63
2022/11/22 01:51:08;;;;;;;1.10;1.00;;;19.90;42.80;;;;;;4978713;28;21012;-64
2022/11/22 01:53:37;;;;;;;1.00;0.93;;;19.90;42.80;;;;;;4999145;28;20564;-62
2022/11/22 01:56:06;;;;;;;1.00;1.00;;;19.90;42.80;;;;;;5001899;28;20460;-64
2022/11/22 01:58:35;;;;;;;1.10;1.00;;;19.90;42.80;;;;;;4991223;28;20457;-63
2022/11/22 02:01:01;;;;;;;1.20;1.07;;;19.90;42.80;;;;;;4999151;28;20461;-62
2022/11/22 02:03:28;;;;;;;1.83;1.30;;;19.90;42.70;;;;;;4999845;28;20787;-62
2022/11/22 02:05:54;;;;;;;1.23;1.13;;;19.90;42.80;;;;;;4999620;28;20223;-63
2022/11/22 02:08:29;;;;;;;1.00;0.90;;;19.90;42.80;;;;;;4993300;28;20480;-64
2022/11/22 02:10:56;;;;;;;1.20;1.10;;;19.90;42.80;;;;;;4997238;28;20471;-63
2022/11/22 02:13:23;;;;;;;0.80;0.80;;;19.90;42.70;;;;;;4996661;28;20465;-63
2022/11/22 02:15:50;;;;;;;1.30;1.20;;;19.90;43.60;;;;;;4998429;28;21191;-63
2022/11/22 02:18:16;;;;;;;1.20;1.10;;;19.90;42.80;;;;;;4999924;28;20491;-62
2022/11/22 02:20:42;;;;;;;1.17;1.07;;;19.90;42.80;;;;;;4981294;28;20429;-63
2022/11/22 02:23:24;;;;;;;1.20;1.10;;;19.90;42.80;;;;;;4983136;28;20454;-63
2022/11/22 02:25:58;;;;;;;1.23;1.13;;;19.90;42.80;;;;;;4977088;28;20482;-63
2022/11/22 02:28:25;;;;;;;1.20;1.10;;;19.90;42.80;;;;;;4989557;28;20544;-63
2022/11/22 02:30:50;;;;;;;1.20;1.10;;;19.90;42.80;;;;;;4990680;28;20493;-63
2022/11/22 02:33:16;;;;;;;1.30;1.20;;;19.90;42.80;;;;;;4978175;28;20656;-63
2022/11/22 02:35:43;;;;;;;1.00;0.90;;;19.80;42.80;;;;;;4983746;28;20236;-63
2022/11/22 02:38:13;;;;;;;1.17;1.07;;;19.90;42.80;;;;;;4986473;28;20663;-61
2022/11/22 02:40:52;;;;;;;1.20;1.10;;;19.90;42.90;;;;;;4992249;28;20486;-63
2022/11/22 02:43:24;;;;;;;1.23;1.10;;;19.80;42.70;;;;;;4994642;28;21012;-62
2022/11/22 02:45:49;;;;;;;1.00;0.90;;;19.90;42.80;;;;;;4993286;28;20477;-64
2022/11/22 02:48:17;;;;;;;1.00;0.93;;;19.80;42.70;;;;;;4999913;28;20450;-63
2022/11/22 02:50:43;;;;;;;1.00;0.90;;;19.80;42.70;;;;;;4998167;28;20277;-62
2022/11/22 02:53:10;;;;;;;1.27;1.00;;;19.80;42.80;;;;;;4998602;28;21100;-64
2022/11/22 02:55:36;;;;;;;1.07;0.97;;;19.80;42.80;;;;;;4980687;28;20451;-62
2022/11/22 02:58:02;;;;;;;1.00;0.90;;;19.90;42.80;;;;;;4979989;28;20476;-62
2022/11/22 03:00:27;;;;;;;1.10;1.00;;;19.80;42.70;;;;;;4994976;28;20235;-64
2022/11/22 03:02:53;;;;;;;1.07;0.90;;;19.80;42.70;;;;;;4999223;28;20460;-63
2022/11/22 03:05:18;;;;;;;0.87;0.80;;;19.80;42.70;;;;;;4998798;28;20914;-62
2022/11/22 03:07:44;;;;;;;1.10;1.00;;;19.80;42.80;;;;;;4991969;28;20601;-63
2022/11/22 03:10:10;;;;;;;0.93;0.93;;;19.80;42.80;;;;;;4998155;28;20231;-63
2022/11/22 03:12:35;;;;;;;1.00;0.90;;;19.80;42.80;;;;;;4996196;28;20562;-63
2022/11/22 03:15:01;;;;;;;0.80;0.80;;;19.80;42.80;;;;;;4995219;28;20348;-62
2022/11/22 03:17:27;;;;;;;1.10;1.00;;;19.80;42.80;;;;;;4994871;28;20553;-63
2022/11/22 03:19:52;;;;;;;1.00;0.90;;;19.80;42.80;;;;;;4999333;28;20227;-63
2022/11/22 03:22:18;;;;;;;0.70;0.70;;;19.80;42.80;;;;;;4994839;28;20670;-63
2022/11/22 03:24:43;;;;;;;0.90;0.87;;;19.80;42.80;;;;;;4990590;28;20218;-63
2022/11/22 03:27:09;;;;;;;1.33;1.23;;;19.80;42.80;;;;;;4998504;28;20226;-63
2022/11/22 03:29:34;;;;;;;1.17;1.07;;;19.80;42.80;;;;;;4997654;28;20226;-63
2022/11/22 03:32:00;;;;;;;1.30;0.93;;;19.80;43.60;;;;;;4979265;28;20232;-63
2022/11/22 03:34:25;;;;;;;1.00;0.90;;;19.80;42.80;;;;;;4982107;28;20219;-63
2022/11/22 03:36:51;;;;;;;1.10;1.00;;;19.80;42.80;;;;;;4981231;28;20759;-63
2022/11/22 03:39:16;;;;;;;1.17;1.07;;;19.80;42.80;;;;;;4992091;28;20219;-62
2022/11/22 03:41:42;;;;;;;1.10;1.00;;;19.80;42.80;;;;;;4982070;28;20619;-63
2022/11/22 03:44:07;;;;;;;1.07;0.97;;;19.80;42.80;;;;;;4979939;28;20274;-63
2022/11/22 03:46:33;;;;;;;0.90;0.90;;;19.80;42.90;;;;;;4977952;28;20669;-63
2022/11/22 03:48:58;;;;;;;1.20;1.10;;;19.80;42.90;;;;;;4980556;28;20219;-63
2022/11/22 03:51:25;;;;;;;1.13;0.90;;;19.80;42.90;;;;;;4980808;28;20288;-63
2022/11/22 03:53:50;;;;;;;0.93;0.90;;;19.80;42.80;;;;;;4976431;28;20224;-62
2022/11/22 03:56:16;;;;;;;0.90;0.90;;;19.80;42.90;;;;;;4974333;28;20584;-64
2022/11/22 03:58:41;;;;;;;1.10;1.00;;;19.80;42.90;;;;;;4987402;28;20310;-63
2022/11/22 04:01:07;;;;;;;1.10;1.00;;;19.80;42.90;;;;;;4984697;28;20212;-63
2022/11/22 04:03:32;;;;;;;1.47;1.00;;;19.80;42.90;;;;;;4981321;28;20274;-63
2022/11/22 04:05:58;;;;;;;0.90;0.90;;;19.80;42.90;;;;;;4981079;28;20247;-63
2022/11/22 04:08:23;;;;;;;1.30;1.20;;;19.80;43.00;;;;;;4978810;28;20294;-63
2022/11/22 04:10:50;;;;;;;2.30;0.90;;;19.80;43.00;;;;;;4975616;28;20270;-63
2022/11/22 04:13:16;;;;;;;1.67;1.27;;;19.80;42.90;;;;;;4975502;28;20318;-64
2022/11/22 04:15:41;;;;;;;1.10;1.00;;;19.80;42.90;;;;;;4982999;28;20551;-63
2022/11/22 04:18:11;;;;;;;1.03;0.80;;;19.80;42.90;;;;;;4979403;28;20849;-63
2022/11/22 04:23:23;;;;;;;0.80;0.80;;;19.80;43.70;;;;;;4987525;28;20472;-63
2022/11/22 04:25:52;;;;;;;1.53;1.30;;;19.80;42.90;;;;;;4991188;28;20460;-63
2022/11/22 04:28:21;;;;;;;1.00;0.90;;;19.80;43.30;;;;;;4995727;28;20526;-63
2022/11/22 04:33:32;;;;;;;0.80;0.80;;;19.80;42.90;;;;;;4999698;28;20502;-64
2022/11/22 04:35:57;;;;;;;1.00;0.90;;;19.80;42.90;;;;;;5001870;28;20929;-63
2022/11/22 04:38:23;;;;;;;1.00;0.93;;;19.80;42.90;;;;;;5000142;28;20227;-64
2022/11/22 04:40:49;;;;;;;1.00;0.90;;;19.80;42.90;;;;;;5003055;28;20226;-63
2022/11/22 04:46:11;;;;;;;1.10;1.00;;;19.80;42.90;;;;;;4991536;28;20329;-63
2022/11/22 04:48:37;;;;;;;1.03;0.93;;;19.80;42.90;;;;;;4994786;28;20919;-61
2022/11/22 04:53:48;;;;;;;0.90;0.90;;;19.80;42.90;;;;;;4984189;28;20639;-62
2022/11/22 04:56:13;;;;;;;1.20;1.10;;;19.80;42.90;;;;;;4985157;28;20457;-62
2022/11/22 04:58:39;;;;;;;0.90;0.73;;;19.80;42.90;;;;;;4983282;28;20572;-63
2022/11/22 05:01:05;;;;;;;1.03;0.90;;;19.80;42.80;;;;;;4979760;28;20670;-62
2022/11/22 05:03:31;;;;;;;1.30;1.20;;;19.80;42.80;;;;;;4984871;28;20227;-62
2022/11/22 05:06:04;;;;;;;1.10;0.97;;;19.80;42.90;;;;;;4990886;28;20220;-63
2022/11/22 05:08:30;;;;;;;0.80;0.73;;;19.80;42.80;;;;;;5001692;28;20227;-62
2022/11/22 05:10:56;;;;;;;1.10;1.00;;;19.90;42.90;;;;;;4998168;28;20468;-64
2022/11/22 05:13:24;;;;;;;1.20;0.90;;;19.90;42.90;;;;;;4996487;28;20763;-63
2022/11/22 05:15:50;;;;;;;0.90;0.90;;;19.90;42.90;;;;;;5000396;28;20484;-63
2022/11/22 05:18:19;;;;;;;1.70;1.03;;;19.90;42.90;;;;;;4991343;28;20436;-65
2022/11/22 05:20:45;;;;;;;1.40;0.83;;;19.90;42.80;;;;;;4985467;28;20238;-62
2022/11/22 05:25:55;;;;;;;0.90;0.90;;;19.90;42.80;;;;;;4989891;28;20500;-61
2022/11/22 05:28:20;;;;;;;2.50;0.87;;;19.90;42.70;;;;;;4983322;28;20461;-61
2022/11/22 05:30:46;;;;;;;1.10;0.80;;;19.90;42.70;;;;;;4974884;28;20283;-64
2022/11/22 05:33:11;;;;;;;1.03;0.80;;;20.00;42.70;;;;;;4978763;28;20551;-64
2022/11/22 05:35:37;;;;;;;0.83;0.83;;;20.00;42.60;;;;;;4988843;28;20573;-64
2022/11/22 05:38:02;;;;;;;2.10;1.00;;;20.00;42.60;;;;;;4983826;28;20251;-63
2022/11/22 05:40:28;;;;;;;1.13;0.90;;;20.10;42.60;;;;;;4991148;28;20761;-63
2022/11/22 05:42:53;;;;;;;0.80;0.80;;;20.10;42.60;;;;;;4994735;28;20295;-61
2022/11/22 05:45:19;;;;;;;0.90;0.77;;;20.10;42.50;;;;;;4991566;28;20228;-63
2022/11/22 05:47:45;;;;;;;0.80;0.80;;;20.10;42.60;;;;;;4980326;28;20217;-62
2022/11/22 05:50:11;;;;;;;0.87;0.87;;;20.10;42.60;;;;;;4984190;28;20225;-62
2022/11/22 05:52:36;;;;;;;1.10;0.90;;;20.10;42.60;;;;;;4979506;28;20411;-62
2022/11/22 05:55:02;;;;;;;1.43;1.00;;;20.10;42.60;;;;;;4974173;28;20447;-62
2022/11/22 05:57:28;;;;;;;1.00;0.90;;;20.10;42.60;;;;;;4990730;28;20674;-62
2022/11/22 05:59:53;;;;;;;0.90;0.80;;;20.10;42.60;;;;;;4978477;28;20931;-62
2022/11/22 06:02:19;;;;;;;0.77;0.77;;;20.10;42.60;;;;;;4978821;28;20224;-61
2022/11/22 06:04:45;;;;;;;1.10;1.00;;;20.10;42.60;;;;;;4971604;28;20629;-61
2022/11/22 06:07:11;;;;;;;1.67;0.80;;;20.10;42.60;;;;;;4983822;28;20259;-62
2022/11/22 06:09:36;;;;;;;1.33;1.00;;;20.10;42.60;;;;;;4971685;28;20219;-65
2022/11/22 06:12:02;;;;;;;1.10;0.90;;;20.10;42.60;;;;;;4964228;28;20579;-63
2022/11/22 06:14:28;;;;;;;1.10;1.00;;;20.10;42.60;;;;;;4973436;28;20520;-64
2022/11/22 06:16:53;;;;;;;1.10;1.00;;;20.10;42.60;;;;;;4975337;28;20543;-62
2022/11/22 06:19:19;;;;;;;0.93;0.90;;;20.10;42.50;;;;;;4977680;28;20228;-64
2022/11/22 06:21:44;;;;;;;1.67;1.00;;;20.10;42.60;;;;;;4985617;28;20227;-62
2022/11/22 06:24:10;;;;;;;1.10;1.00;;;20.10;42.60;;;;;;4989549;28;20223;-62
2022/11/22 06:26:36;;;;;;;1.03;0.93;;;20.10;42.60;;;;;;4989158;28;20358;-63
2022/11/22 06:29:02;;;;;;;1.10;1.00;;;20.10;42.60;;;;;;4987160;28;20276;-64
2022/11/22 06:31:28;;;;;;;1.93;0.80;;;20.10;42.60;;;;;;4987965;28;20243;-64
2022/11/22 06:33:55;;;;;;;0.77;0.70;;;20.10;42.60;;;;;;4989082;28;20461;-65
2022/11/22 06:36:24;;;;;;;1.20;0.90;;;20.10;42.60;;;;;;4986054;28;20219;-63
2022/11/22 06:38:50;;;;;;;1.00;0.90;;;20.10;42.60;;;;;;4984415;28;20932;-62
2022/11/22 06:41:21;;;;;;;0.90;0.90;;;20.10;42.60;;;;;;4975061;28;20523;-63
2022/11/22 06:43:49;;;;;;;0.87;0.80;;;20.10;42.60;;;;;;4976720;28;20511;-62
2022/11/22 06:46:19;;;;;;;0.90;0.83;;;20.10;42.60;;;;;;4974895;28;20436;-64
2022/11/22 06:48:45;;;;;;;1.63;1.20;;;20.10;42.60;;;;;;4973916;28;20989;-64
2022/11/22 06:51:13;;;;;;;1.00;0.80;;;20.10;42.60;;;;;;4978953;28;20563;-63
2022/11/22 06:53:39;;;;;;;1.43;0.90;;;20.10;42.60;;;;;;4977376;28;20454;-63
2022/11/22 06:56:07;;;;;;;1.00;0.90;;;20.10;42.50;;;;;;4973183;28;20516;-64
2022/11/22 06:58:33;;;;;;;1.20;1.10;;;20.10;42.60;;;;;;4983402;28;20466;-62
2022/11/22 07:01:00;;;;;;;1.20;0.90;;;20.10;42.60;;;;;;4979338;28;20918;-64
2022/11/22 07:03:26;;;;;;;1.10;1.00;;;20.10;42.60;;;;;;4977090;28;20629;-62
2022/11/22 07:05:52;;;;;;;1.00;0.90;;;20.10;42.60;;;;;;4976601;28;20454;-60
2022/11/22 07:08:17;;;;;;;2.43;0.90;;;20.10;42.60;;;;;;4976780;28;20274;-61
2022/11/22 07:10:43;;;;;;;0.97;0.90;;;20.10;42.60;;;;;;4978529;28;20243;-62
2022/11/22 07:13:09;;;;;;;1.20;0.80;;;20.10;42.60;;;;;;4975800;28;20244;-62
2022/11/22 07:15:35;;;;;;;1.43;1.10;;;20.10;42.60;;;;;;4994894;28;20565;-62
2022/11/22 07:18:00;;;;;;;0.80;0.70;;;20.10;42.60;;;;;;4982018;28;20485;-63
2022/11/22 07:20:26;;;;;;;1.10;0.80;;;20.10;42.60;;;;;;4997904;28;20231;-62
2022/11/22 07:22:51;;;;;;;1.00;0.70;;;20.10;42.60;;;;;;4985848;28;20228;-64
2022/11/22 07:25:17;;;;;;;3.63;0.90;;;20.10;42.60;;;;;;4995723;28;20207;-65
2022/11/22 07:27:42;;;;;;;1.07;0.97;;;20.10;42.60;;;;;;4982081;28;21043;-64
2022/11/22 07:30:09;;;;;;;1.10;1.00;;;20.10;42.60;;;;;;4979229;28;20251;-64
2022/11/22 07:32:34;;;;;;;0.80;0.70;;;20.10;42.70;;;;;;4982048;28;20253;-62
2022/11/22 07:35:00;;;;;;;1.10;1.00;;;20.10;42.60;;;;;;4976839;28;20457;-64
2022/11/22 07:37:25;;;;;;;1.87;0.80;;;20.10;42.50;;;;;;5009168;28;20317;-62
2022/11/22 07:39:51;;;;;;;1.73;0.80;;;20.10;42.50;;;;;;4994109;28;20572;-63
2022/11/22 07:42:16;;;;;;;1.10;1.00;;;20.00;42.50;;;;;;4991566;28;20227;-64
2022/11/22 07:44:42;;;;;;;1.10;0.83;;;20.10;42.50;;;;;;4991490;28;20219;-62
2022/11/22 07:47:07;;;;;;;1.97;1.00;;;20.10;42.50;;;;;;4990661;28;20218;-64
2022/11/22 07:49:33;;;;;;;1.20;1.10;;;20.00;42.50;;;;;;4993526;28;20246;-71
2022/11/22 07:51:58;;;;;;;1.10;0.97;;;20.10;42.50;;;;;;4993795;28;20302;-64
2022/11/22 07:54:24;;;;;;;1.10;0.93;;;20.10;42.60;;;;;;4988298;28;20224;-64
2022/11/22 07:56:50;;;;;;;1.10;0.90;;;20.10;42.50;;;;;;4981403;28;20220;-63
2022/11/22 07:59:15;;;;;;;1.20;0.83;;;20.10;42.60;;;;;;4979217;28;20319;-63
2022/11/22 08:01:41;;;;;;;1.20;1.10;;;20.10;42.60;;;;;;4990088;28;20274;-65
2022/11/22 08:04:06;;;;;;;1.57;0.90;;;20.10;42.60;;;;;;4982353;28;20219;-64
2022/11/22 08:06:32;;;;;;;1.30;1.10;;;20.10;42.60;;;;;;4985749;28;20240;-64
2022/11/22 08:08:57;;;;;;;1.10;1.00;;;20.10;42.60;;;;;;4982022;28;20223;-64
2022/11/22 08:11:23;;;;;;;1.00;0.90;;;20.10;42.60;;;;;;4983561;28;20224;-64
2022/11/22 08:13:48;;;;;;;0.97;0.93;;;20.10;42.70;;;;;;4989894;28;20230;-63
2022/11/22 08:16:15;;;;;;;1.20;1.00;;;20.10;42.60;;;;;;4979089;28;20227;-62
2022/11/22 08:18:46;;;;;;;1.87;0.90;;;20.10;42.60;;;;;;4981990;28;20242;-63
2022/11/22 08:21:13;;;;;;;1.43;1.00;;;20.10;42.60;;;;;;4984439;28;20493;-64
2022/11/22 08:23:39;;;;;;;1.33;1.07;;;20.10;42.60;;;;;;4986862;28;20531;-64
2022/11/22 08:26:07;;;;;;;1.03;0.93;;;20.00;42.50;;;;;;4988960;28;20456;-63
2022/11/22 08:28:32;;;;;;;1.93;1.10;;;20.10;42.60;;;;;;4985486;28;20488;-64
2022/11/22 08:31:07;;;;;;;3.60;0.90;;;20.10;42.50;;;;;;4976232;28;20564;-64
2022/11/22 08:33:33;;;;;;;1.20;0.90;;;20.10;42.60;;;;;;4970962;28;20215;-65
2022/11/22 08:35:58;;;;;;;1.80;1.00;;;20.10;42.50;;;;;;4972291;28;21133;-68
2022/11/22 08:38:24;;;;;;;1.20;1.00;;;20.10;42.30;;;;;;4975208;28;20563;-66
2022/11/22 08:40:50;;;;;;;0.93;0.87;;;20.10;42.30;;;;;;4980652;28;20216;-64
2022/11/22 08:43:16;;;;;;;1.17;1.07;;;20.10;42.30;;;;;;4974469;28;20243;-64
2022/11/22 08:45:42;;;;;;;0.90;0.73;;;20.10;42.30;;;;;;4976996;28;20446;-64
2022/11/22 08:48:07;;;;;;;1.20;0.83;;;20.10;42.30;;;;;;4980276;28;20312;-64
2022/11/22 08:50:33;;;;;;;1.03;0.83;;;20.10;42.30;;;;;;4980231;28;20323;-65
2022/11/22 08:53:00;;;;;;;1.17;1.07;;;20.10;42.40;;;;;;4979590;28;20926;-65
2022/11/22 08:55:26;;;;;;;1.10;1.00;;;20.10;42.40;;;;;;4974262;28;20289;-63
2022/11/22 08:57:51;;;;;;;1.13;0.80;;;20.10;42.30;;;;;;4976581;28;20545;-63
2022/11/22 09:00:17;;;;;;;1.67;0.80;;;20.10;42.50;;;;;;4998146;28;20223;-64
2022/11/22 09:02:42;;;;;;;0.93;0.90;;;20.10;42.40;;;;;;4985616;28;20232;-64
2022/11/22 09:05:08;;;;;;;1.00;0.90;;;20.10;42.40;;;;;;4985149;28;20219;-65
2022/11/22 09:07:34;;;;;;;2.00;0.87;;;20.10;42.40;;;;;;4977730;28;20266;-65
2022/11/22 09:09:59;;;;;;;1.20;1.00;;;20.10;42.40;;;;;;5005320;28;20234;-63
2022/11/22 09:12:25;;;;;;;1.10;1.00;;;20.10;42.50;;;;;;4983879;28;20255;-64
2022/11/22 09:14:51;;;;;;;1.30;0.90;;;20.10;42.30;;;;;;4999681;28;20294;-63
2022/11/22 09:17:16;;;;;;;1.23;0.90;;;20.10;42.30;;;;;;4996744;28;20223;-65
2022/11/22 09:19:42;;;;;;;1.10;1.00;;;20.10;42.40;;;;;;4982870;28;20644;-63
2022/11/22 09:22:08;;;;;;;2.17;1.03;;;20.10;42.30;;;;;;4985644;28;20224;-64
2022/11/22 09:24:33;;;;;;;0.90;0.90;;;20.10;42.40;;;;;;4984216;28;20497;-64
2022/11/22 09:26:59;;;;;;;1.10;0.90;;;20.10;42.30;;;;;;4992659;28;20219;-64
2022/11/22 09:29:25;;;;;;;0.83;0.80;;;20.10;42.30;;;;;;5000957;28;20567;-63
2022/11/22 09:31:51;;;;;;;1.60;0.90;;;20.10;42.30;;;;;;4998923;28;20623;-63
2022/11/22 09:34:16;;;;;;;0.97;0.87;;;20.10;42.30;;;;;;4999547;28;20227;-63
2022/11/22 09:36:42;;;;;;;1.10;1.00;;;20.10;42.30;;;;;;4984179;28;20220;-65
2022/11/22 09:39:08;;;;;;;0.73;0.70;;;20.10;42.30;;;;;;4978106;28;20223;-64
2022/11/22 09:41:55;;;;;;;1.10;1.00;;;20.10;42.30;;;;;;4980100;28;20314;-67
2022/11/22 09:44:45;;;;;;;0.90;0.77;;;20.10;42.20;;;;;;5000067;28;20219;-66
2022/11/22 09:47:48;;;;;;;1.50;1.00;;;20.10;42.30;;;;;;4994319;28;20469;-66
2022/11/22 09:50:45;;;;;;;2.03;1.00;;;20.10;42.30;;;;;;4988778;28;20491;-65
2022/11/22 09:53:19;;;;;;;1.97;0.90;;;20.10;42.30;;;;;;4976090;28;20553;-64
2022/11/22 09:55:47;;;;;;;1.30;1.17;;;20.10;42.40;;;;;;4979663;28;20481;-64
2022/11/22 09:58:24;;;;;;;0.80;0.77;;;20.10;42.40;;;;;;4975552;28;20955;-65
2022/11/22 10:00:53;;;;;;;1.00;0.87;;;20.10;42.30;;;;;;4975629;28;20508;-64
2022/11/22 10:03:31;;;;;;;1.10;1.00;;;20.10;42.30;;;;;;4976159;28;20458;-64
2022/11/22 10:06:04;;;;;;;0.90;0.80;;;20.10;42.30;;;;;;4990269;28;20532;-65
2022/11/22 10:08:35;;;;;;;1.03;0.93;;;20.10;42.30;;;;;;4985613;28;20485;-65
2022/11/22 10:11:09;;;;;;;2.33;2.23;;;20.10;42.30;;;;;;4988326;28;20466;-64
2022/11/22 10:13:49;;;;;;;0.83;0.77;;;20.10;42.20;;;;;;4998258;28;21100;-64
2022/11/22 10:16:34;;;;;;;1.10;0.87;;;20.10;42.20;;;;;;4983054;28;20625;-63
2022/11/22 10:19:03;;;;;;;1.00;0.80;;;20.10;43.00;;;;;;4977616;28;20511;-64
2022/11/22 10:21:29;;;;;;;1.00;0.90;;;20.10;42.20;;;;;;4987964;28;20488;-63
2022/11/22 10:23:54;;;;;;;1.40;0.90;;;20.10;42.20;;;;;;4979510;28;20580;-63
2022/11/22 10:26:27;;;;;;;0.80;0.80;;;20.10;42.30;;;;;;4986073;28;20267;-63
2022/11/22 10:29:26;;;;;;;0.93;0.80;;;20.10;42.20;;;;;;4989043;28;20227;-63
2022/11/22 10:32:12;;;;;;;1.60;0.80;;;20.10;42.20;;;;;;4997570;28;20469;-63
2022/11/22 10:34:58;;;;;;;0.70;0.60;;;20.10;42.30;;;;;;4972799;28;20462;-64
2022/11/22 10:37:35;;;;;;;0.80;0.80;;;20.10;42.20;;;;;;4999432;28;20463;-66
2022/11/22 10:40:22;;;;;;;1.20;1.10;;;20.10;42.20;;;;;;4995765;28;20461;-65
2022/11/22 10:43:05;;;;;;;1.00;0.90;;;20.10;42.20;;;;;;4996531;28;20500;-65
2022/11/22 10:45:40;;;;;;;0.70;0.70;;;20.10;42.30;;;;;;4985599;28;21188;-64
2022/11/22 10:48:30;;;;;;;0.70;0.70;;;20.10;42.20;;;;;;4984853;28;20465;-64
2022/11/22 10:51:19;;;;;;;1.07;0.90;;;20.10;42.20;;;;;;4979606;28;20939;-65
2022/11/22 10:54:10;;;;;;;1.77;0.87;;;20.10;42.20;;;;;;4996084;28;20512;-66
2022/11/22 10:56:49;;;;;;;1.00;0.90;;;20.10;42.30;;;;;;4982627;28;20469;-65
2022/11/22 10:59:29;;;;;;;1.40;0.90;;;20.10;42.20;;;;;;4986876;28;21030;-65
2022/11/22 11:01:58;;;;;;;1.00;0.90;;;20.10;42.20;;;;;;4976001;28;20836;-65
2022/11/22 11:04:33;;;;;;;1.70;0.80;;;20.10;42.20;;;;;;5005773;28;20962;-66
2022/11/22 11:07:00;;;;;;;1.20;0.93;;;20.10;42.20;;;;;;4984087;28;20512;-64
2022/11/22 11:09:50;;;;;;;1.03;0.93;;;20.10;42.20;;;;;;4991684;28;20485;-63
2022/11/22 11:12:43;;;;;;;1.10;1.00;;;20.10;42.10;;;;;;4987654;28;20594;-65
2022/11/22 11:15:27;;;;;;;1.10;0.93;;;20.10;42.20;;;;;;4990193;28;20472;-64
2022/11/22 11:17:58;;;;;;;0.80;0.80;;;20.10;42.10;;;;;;4986290;28;20489;-62
2022/11/22 11:20:31;;;;;;;0.80;0.70;;;20.10;42.20;;;;;;4978410;28;20478;-62
2022/11/22 11:22:56;;;;;;;1.00;0.80;;;20.10;42.20;;;;;;4975003;28;22431;-64
2022/11/22 11:25:32;;;;;;;0.80;0.80;;;20.10;42.20;;;;;;4980649;28;21490;-65
2022/11/22 11:28:23;;;;;;;1.27;0.70;;;20.10;42.20;;;;;;4970712;28;20245;-66
2022/11/22 11:30:51;;;;;;;1.07;0.80;;;20.10;42.20;;;;;;4974669;28;20465;-63
2022/11/22 11:33:37;;;;;;;1.20;0.80;;;20.10;42.20;;;;;;4979831;28;20523;-63
2022/11/22 11:36:22;;;;;;;0.90;0.80;;;20.10;42.20;;;;;;4978995;28;20577;-62
2022/11/22 11:38:56;;;;;;;0.80;0.60;;;20.10;42.20;;;;;;4997810;28;20507;-63
2022/11/22 11:41:32;;;;;;;1.10;1.00;;;20.10;42.20;;;;;;4992312;28;21002;-62
2022/11/22 11:44:01;;;;;;;0.90;0.70;;;20.10;42.20;;;;;;4985636;28;20458;-62
2022/11/22 11:46:28;;;;;;;1.67;0.90;;;20.10;42.20;;;;;;4984568;28;20452;-63
2022/11/22 11:49:15;;;;;;;0.70;0.70;;;20.10;42.20;;;;;;4980798;28;21890;-64
2022/11/22 11:51:47;;;;;;;1.03;0.83;;;20.10;42.20;;;;;;4980678;28;20460;-63
2022/11/22 11:54:29;;;;;;;0.80;0.70;;;20.10;42.20;;;;;;4999870;28;21101;-63
2022/11/22 11:56:57;;;;;;;1.00;0.90;;;20.10;42.20;;;;;;4994848;28;20560;-66
2022/11/22 11:59:37;;;;;;;0.77;0.70;;;20.10;42.20;;;;;;4995530;28;20514;-63
2022/11/22 12:02:13;;;;;;;1.10;0.70;;;20.10;43.00;;;;;;4976607;28;20456;-62
2022/11/22 12:04:53;;;;;;;0.80;0.80;;;20.10;42.20;;;;;;4981459;28;20456;-62
2022/11/22 12:07:23;;;;;;;0.60;0.60;;;20.10;42.20;;;;;;4987505;28;20606;-63
2022/11/22 12:09:50;;;;;;;1.53;1.00;;;20.10;42.30;;;;;;5008381;28;20899;-63
2022/11/22 12:12:39;;;;;;;0.87;0.63;;;20.10;42.30;;;;;;5004799;28;20585;-63
2022/11/22 12:15:11;;;;;;;1.00;0.80;;;20.10;42.20;;;;;;4990193;28;20444;-64
2022/11/22 12:18:01;;;;;;;0.70;0.70;;;20.10;42.30;;;;;;4996504;28;20458;-63
2022/11/22 12:20:42;;;;;;;1.00;0.90;;;20.10;42.20;;;;;;4985996;28;20462;-62
2022/11/22 12:23:45;;;;;;;2.73;0.80;;;20.10;42.30;;;;;;4979513;28;20532;-65
2022/11/22 12:26:12;;;;;;;0.80;0.70;;;20.10;42.30;;;;;;4980776;28;20468;-64
2022/11/22 12:28:38;;;;;;;1.67;0.80;;;20.10;42.30;;;;;;4982941;28;20454;-64
2022/11/22 12:31:06;;;;;;;0.87;0.77;;;20.10;42.30;;;;;;4979622;28;21052;-64
2022/11/22 12:33:40;;;;;;;1.73;0.90;;;20.10;42.20;;;;;;4992284;28;20220;-65
2022/11/22 12:36:14;;;;;;;3.10;0.80;;;20.10;42.30;;;;;;4977000;28;21034;-66
2022/11/22 12:38:43;;;;;;;1.00;0.80;;;20.10;41.80;;;;;;4981364;28;21027;-64
2022/11/22 12:41:15;;;;;;;1.00;0.90;;;20.10;42.30;;;;;;4972056;28;20552;-64
2022/11/22 12:43:52;;;;;;;0.80;0.80;;;20.10;41.60;;;;;;4976678;28;20988;-63
2022/11/22 12:46:26;;;;;;;0.77;0.70;;;20.10;41.60;;;;;;4977399;28;20453;-63
2022/11/22 12:49:12;;;;;;;0.80;0.63;;;20.10;41.70;;;;;;4977680;28;20550;-64
2022/11/22 12:51:56;;;;;;;0.80;0.70;;;20.10;41.70;;;;;;4986074;28;20464;-66
2022/11/22 12:54:28;;;;;;;0.90;0.80;;;20.10;41.80;;;;;;4981977;28;21052;-65
2022/11/22 12:56:57;;;;;;;1.07;0.77;;;20.10;41.90;;;;;;4981602;28;20521;-66
2022/11/22 12:59:23;;;;;;;0.70;0.60;;;20.10;42.00;;;;;;4978614;28;20480;-64
2022/11/22 13:01:59;;;;;;;0.80;0.80;;;20.10;41.90;;;;;;4972608;28;20971;-63
2022/11/22 13:04:34;;;;;;;1.07;0.80;;;20.10;42.00;;;;;;4983501;28;20223;-62
2022/11/22 13:07:37;;;;;;;0.80;0.80;;;20.10;42.00;;;;;;4984121;28;20986;-63
2022/11/22 13:10:21;;;;;;;0.97;0.77;;;20.10;42.00;;;;;;4979985;28;21156;-63
2022/11/22 13:12:48;;;;;;;1.10;1.00;;;20.10;42.10;;;;;;4986488;28;20604;-67